Prescott, Arizona
Current Conditions -  °F | °C
As of 10:53 PM on Monday 26 Jan 2015 (Local Time) from KPRC Reporting Station
Light Rain Light Rain  
Wind Chill:   Ceiling: 5500
Heat Index:   Visibility: 8mi
Dew Point:   Wind: 8mph
Humidity: 71%   Direction: 160°SSE
Pressure: 30.25"   Gusts: NA
Location:  34.54°N, 112.47°W
Report Text: KPRC 270553Z AUTO 16007KT 8SM -RA OVC055 08/03 A3025 RMK AO2 RAB09 SLP205 P0003 60003 T00780028 10144 20078 53011
Loading
Personal Weather Stations






























Interactive Weather Map New forecast layout! Learn more

10-Day Weather Forecast

Advertisements
Track Severe Weather on mobile